sensor_id;sensor_type;location;lat;lon;timestamp;pressure;altitude;pressure_sealevel;temperature;humidity
71917;BME280;59793;46.506;6.674;2024-03-02T00:00:08;96156.91;;;7.05;73.67
71917;BME280;59793;46.506;6.674;2024-03-02T00:02:42;96163.66;;;7.06;74.00
71917;BME280;59793;46.506;6.674;2024-03-02T00:05:12;96168.56;;;7.07;74.14
71917;BME280;59793;46.506;6.674;2024-03-02T00:07:43;96170.50;;;7.10;73.93
71917;BME280;59793;46.506;6.674;2024-03-02T00:10:10;96157.16;;;7.15;73.31
71917;BME280;59793;46.506;6.674;2024-03-02T00:12:38;96169.56;;;7.18;73.71
71917;BME280;59793;46.506;6.674;2024-03-02T00:15:24;96159.34;;;7.13;73.36
71917;BME280;59793;46.506;6.674;2024-03-02T00:17:55;96166.13;;;7.14;72.90
71917;BME280;59793;46.506;6.674;2024-03-02T00:20:23;96158.59;;;6.97;73.87
71917;BME280;59793;46.506;6.674;2024-03-02T00:22:50;96162.31;;;6.80;74.11
71917;BME280;59793;46.506;6.674;2024-03-02T00:25:16;96149.72;;;6.54;74.94
71917;BME280;59793;46.506;6.674;2024-03-02T00:27:42;96155.34;;;6.56;75.29
71917;BME280;59793;46.506;6.674;2024-03-02T00:30:55;96165.25;;;6.47;75.58
71917;BME280;59793;46.506;6.674;2024-03-02T00:33:21;96167.84;;;6.47;75.75
71917;BME280;59793;46.506;6.674;2024-03-02T00:35:47;96161.94;;;6.50;75.28
71917;BME280;59793;46.506;6.674;2024-03-02T00:38:14;96152.63;;;6.37;75.73
71917;BME280;59793;46.506;6.674;2024-03-02T00:40:41;96152.69;;;5.96;76.88
71917;BME280;59793;46.506;6.674;2024-03-02T00:43:11;96167.81;;;5.91;77.62
71917;BME280;59793;46.506;6.674;2024-03-02T00:45:44;96151.69;;;5.89;77.94
71917;BME280;59793;46.506;6.674;2024-03-02T00:48:10;96163.66;;;5.90;77.78
71917;BME280;59793;46.506;6.674;2024-03-02T00:50:35;96171.31;;;5.83;78.17
71917;BME280;59793;46.506;6.674;2024-03-02T00:53:02;96160.34;;;5.65;78.98
71917;BME280;59793;46.506;6.674;2024-03-02T00:55:27;96166.34;;;5.78;79.65
71917;BME280;59793;46.506;6.674;2024-03-02T00:57:53;96161.06;;;5.90;79.27
71917;BME280;59793;46.506;6.674;2024-03-02T01:00:19;96156.41;;;5.95;78.97
71917;BME280;59793;46.506;6.674;2024-03-02T01:02:44;96140.06;;;5.98;78.68
71917;BME280;59793;46.506;6.674;2024-03-02T01:05:11;96154.50;;;6.08;78.33
71917;BME280;59793;46.506;6.674;2024-03-02T01:07:38;96145.75;;;6.16;77.63
71917;BME280;59793;46.506;6.674;2024-03-02T01:10:03;96125.50;;;6.13;77.73
71917;BME280;59793;46.506;6.674;2024-03-02T01:12:29;96145.03;;;6.32;77.02
71917;BME280;59793;46.506;6.674;2024-03-02T01:14:54;96130.16;;;6.36;76.12
71917;BME280;59793;46.506;6.674;2024-03-02T01:17:19;96139.16;;;6.51;75.80
71917;BME280;59793;46.506;6.674;2024-03-02T01:19:45;96064.34;;;6.18;75.12
71917;BME280;59793;46.506;6.674;2024-03-02T01:22:10;96125.25;;;6.62;74.50
71917;BME280;59793;46.506;6.674;2024-03-02T01:24:35;96142.44;;;6.47;74.97
71917;BME280;59793;46.506;6.674;2024-03-02T01:27:00;96128.88;;;6.14;75.58
71917;BME280;59793;46.506;6.674;2024-03-02T01:29:26;96145.56;;;6.09;76.46
71917;BME280;59793;46.506;6.674;2024-03-02T01:31:51;96116.28;;;5.63;77.32
71917;BME280;59793;46.506;6.674;2024-03-02T01:34:18;96145.03;;;5.63;78.35
71917;BME280;59793;46.506;6.674;2024-03-02T01:36:43;96130.91;;;5.52;78.13
71917;BME280;59793;46.506;6.674;2024-03-02T01:39:09;96086.75;;;5.22;78.60
71917;BME280;59793;46.506;6.674;2024-03-02T01:41:34;96114.75;;;5.10;78.80
71917;BME280;59793;46.506;6.674;2024-03-02T01:44:00;96137.88;;;5.36;79.67
71917;BME280;59793;46.506;6.674;2024-03-02T01:46:25;96138.84;;;5.56;80.65
71917;BME280;59793;46.506;6.674;2024-03-02T01:48:50;96120.97;;;5.58;80.43
71917;BME280;59793;46.506;6.674;2024-03-02T01:51:16;96141.09;;;5.69;79.88
71917;BME280;59793;46.506;6.674;2024-03-02T01:53:41;96139.75;;;5.75;80.31
71917;BME280;59793;46.506;6.674;2024-03-02T01:56:06;96124.50;;;5.78;79.17
71917;BME280;59793;46.506;6.674;2024-03-02T01:58:32;96114.72;;;5.74;79.14
71917;BME280;59793;46.506;6.674;2024-03-02T02:00:57;96126.13;;;5.82;78.77
71917;BME280;59793;46.506;6.674;2024-03-02T02:03:22;96122.53;;;5.87;79.28
71917;BME280;59793;46.506;6.674;2024-03-02T02:05:48;96118.13;;;5.63;78.79
71917;BME280;59793;46.506;6.674;2024-03-02T02:08:13;96129.75;;;5.65;78.39
71917;BME280;59793;46.506;6.674;2024-03-02T02:10:38;96130.91;;;5.52;78.88
71917;BME280;59793;46.506;6.674;2024-03-02T02:13:04;96117.47;;;5.13;80.20
71917;BME280;59793;46.506;6.674;2024-03-02T02:15:30;96125.81;;;5.19;80.74
71917;BME280;59793;46.506;6.674;2024-03-02T02:17:57;96128.44;;;5.19;81.14
71917;BME280;59793;46.506;6.674;2024-03-02T02:20:22;96139.19;;;5.30;81.18
71917;BME280;59793;46.506;6.674;2024-03-02T02:22:58;96131.94;;;5.23;81.39
71917;BME280;59793;46.506;6.674;2024-03-02T02:25:23;96127.66;;;5.31;81.40
71917;BME280;59793;46.506;6.674;2024-03-02T02:27:49;96126.34;;;5.49;81.45
71917;BME280;59793;46.506;6.674;2024-03-02T02:30:21;96117.59;;;5.57;81.38
71917;BME280;59793;46.506;6.674;2024-03-02T02:32:47;96119.56;;;5.60;80.39
71917;BME280;59793;46.506;6.674;2024-03-02T02:35:13;96115.09;;;5.61;80.08
71917;BME280;59793;46.506;6.674;2024-03-02T02:37:38;96105.59;;;5.68;80.24
71917;BME280;59793;46.506;6.674;2024-03-02T02:40:04;96099.28;;;5.69;80.18
71917;BME280;59793;46.506;6.674;2024-03-02T02:42:30;96113.78;;;5.67;79.52
71917;BME280;59793;46.506;6.674;2024-03-02T02:44:55;96111.28;;;5.58;79.71
71917;BME280;59793;46.506;6.674;2024-03-02T02:47:21;96109.88;;;5.61;80.57
71917;BME280;59793;46.506;6.674;2024-03-02T02:49:46;96089.53;;;5.54;80.81
71917;BME280;59793;46.506;6.674;2024-03-02T02:52:11;96077.13;;;5.51;81.23
71917;BME280;59793;46.506;6.674;2024-03-02T02:54:37;96025.59;;;5.36;80.32
71917;BME280;59793;46.506;6.674;2024-03-02T02:57:03;96084.88;;;5.75;80.12
71917;BME280;59793;46.506;6.674;2024-03-02T02:59:28;96085.56;;;5.72;80.05
71917;BME280;59793;46.506;6.674;2024-03-02T03:01:53;96064.06;;;5.51;79.56
71917;BME280;59793;46.506;6.674;2024-03-02T03:04:19;96075.03;;;5.57;79.84
71917;BME280;59793;46.506;6.674;2024-03-02T03:06:44;96063.63;;;5.49;79.61
71917;BME280;59793;46.506;6.674;2024-03-02T03:09:11;96082.13;;;5.56;79.71
71917;BME280;59793;46.506;6.674;2024-03-02T03:11:36;96082.97;;;5.60;80.04
71917;BME280;59793;46.506;6.674;2024-03-02T03:14:02;96051.34;;;5.49;79.90
71917;BME280;59793;46.506;6.674;2024-03-02T03:16:28;96087.63;;;5.67;80.00
71917;BME280;59793;46.506;6.674;2024-03-02T03:18:53;96072.53;;;5.60;79.39
71917;BME280;59793;46.506;6.674;2024-03-02T03:21:19;96080.72;;;5.59;79.50
71917;BME280;59793;46.506;6.674;2024-03-02T03:23:44;96053.94;;;5.49;80.11
71917;BME280;59793;46.506;6.674;2024-03-02T03:26:09;96056.84;;;5.60;79.63
71917;BME280;59793;46.506;6.674;2024-03-02T03:28:34;96072.78;;;5.83;79.00
71917;BME280;59793;46.506;6.674;2024-03-02T03:31:00;96075.06;;;5.85;78.96
71917;BME280;59793;46.506;6.674;2024-03-02T03:33:25;96087.47;;;5.88;79.36
71917;BME280;59793;46.506;6.674;2024-03-02T03:35:50;96078.66;;;5.80;79.12
71917;BME280;59793;46.506;6.674;2024-03-02T03:38:16;96072.44;;;5.85;78.93
71917;BME280;59793;46.506;6.674;2024-03-02T03:40:41;96058.84;;;5.79;78.90
71917;BME280;59793;46.506;6.674;2024-03-02T03:43:06;96068.28;;;5.96;79.13
71917;BME280;59793;46.506;6.674;2024-03-02T03:45:32;96049.44;;;5.90;78.81
71917;BME280;59793;46.506;6.674;2024-03-02T03:47:57;96069.81;;;5.85;78.77
71917;BME280;59793;46.506;6.674;2024-03-02T03:50:23;96049.00;;;5.60;79.30
71917;BME280;59793;46.506;6.674;2024-03-02T03:52:48;96064.75;;;5.76;79.35
71917;BME280;59793;46.506;6.674;2024-03-02T03:55:13;96074.03;;;5.61;79.50
71917;BME280;59793;46.506;6.674;2024-03-02T03:57:39;96069.66;;;5.65;79.82
71917;BME280;59793;46.506;6.674;2024-03-02T04:00:04;96072.06;;;5.70;80.08
71917;BME280;59793;46.506;6.674;2024-03-02T04:02:30;96062.84;;;5.61;79.80
71917;BME280;59793;46.506;6.674;2024-03-02T04:04:55;96059.28;;;5.53;79.40
71917;BME280;59793;46.506;6.674;2024-03-02T04:07:20;96082.50;;;5.70;79.67
71917;BME280;59793;46.506;6.674;2024-03-02T04:09:46;96065.13;;;5.62;79.44
71917;BME280;59793;46.506;6.674;2024-03-02T04:12:11;96067.59;;;5.71;79.00
71917;BME280;59793;46.506;6.674;2024-03-02T04:14:38;96084.03;;;5.71;79.22
71917;BME280;59793;46.506;6.674;2024-03-02T04:17:03;96069.91;;;5.60;79.09
71917;BME280;59793;46.506;6.674;2024-03-02T04:19:28;96080.34;;;5.72;78.79
71917;BME280;59793;46.506;6.674;2024-03-02T04:21:54;96079.66;;;5.75;79.02
71917;BME280;59793;46.506;6.674;2024-03-02T04:24:19;96064.41;;;5.78;78.42
71917;BME280;59793;46.506;6.674;2024-03-02T04:26:44;96082.44;;;5.95;77.78
71917;BME280;59793;46.506;6.674;2024-03-02T04:29:10;96015.50;;;5.62;77.68
71917;BME280;59793;46.506;6.674;2024-03-02T04:31:35;96080.03;;;5.90;77.79
71917;BME280;59793;46.506;6.674;2024-03-02T04:34:00;96071.31;;;5.70;77.30
71917;BME280;59793;46.506;6.674;2024-03-02T04:36:25;96064.75;;;5.48;78.30
71917;BME280;59793;46.506;6.674;2024-03-02T04:38:51;96066.47;;;5.44;78.87
71917;BME280;59793;46.506;6.674;2024-03-02T04:41:17;96063.34;;;5.38;78.81
71917;BME280;59793;46.506;6.674;2024-03-02T04:43:43;96067.44;;;5.51;78.86
71917;BME280;59793;46.506;6.674;2024-03-02T04:46:08;96079.38;;;5.65;78.11
71917;BME280;59793;46.506;6.674;2024-03-02T04:48:34;96065.31;;;5.69;78.15
71917;BME280;59793;46.506;6.674;2024-03-02T04:50:59;96059.47;;;5.88;77.42
71917;BME280;59793;46.506;6.674;2024-03-02T04:53:24;96061.94;;;5.97;76.95
71917;BME280;59793;46.506;6.674;2024-03-02T04:55:50;96055.44;;;5.91;76.75
71917;BME280;59793;46.506;6.674;2024-03-02T04:58:34;96055.16;;;6.08;76.39
71917;BME280;59793;46.506;6.674;2024-03-02T05:00:59;96040.97;;;6.09;75.66
71917;BME280;59793;46.506;6.674;2024-03-02T05:03:25;96066.63;;;6.19;75.16
71917;BME280;59793;46.506;6.674;2024-03-02T05:05:50;96045.25;;;5.73;75.55
71917;BME280;59793;46.506;6.674;2024-03-02T05:08:15;96050.50;;;5.73;75.71
71917;BME280;59793;46.506;6.674;2024-03-02T05:10:42;96059.44;;;5.72;76.49
71917;BME280;59793;46.506;6.674;2024-03-02T05:13:07;96077.00;;;5.88;75.93
71917;BME280;59793;46.506;6.674;2024-03-02T05:15:33;96036.56;;;5.69;75.66
71917;BME280;59793;46.506;6.674;2024-03-02T05:17:58;96061.31;;;5.88;75.32
71917;BME280;59793;46.506;6.674;2024-03-02T05:20:24;96060.47;;;5.84;75.81
71917;BME280;59793;46.506;6.674;2024-03-02T05:22:50;96064.97;;;5.71;76.23
71917;BME280;59793;46.506;6.674;2024-03-02T05:25:15;96049.97;;;5.68;76.27
71917;BME280;59793;46.506;6.674;2024-03-02T05:27:40;96038.63;;;5.48;76.17
71917;BME280;59793;46.506;6.674;2024-03-02T05:30:06;96060.47;;;5.84;75.71
71917;BME280;59793;46.506;6.674;2024-03-02T05:32:33;96069.81;;;5.85;75.90
71917;BME280;59793;46.506;6.674;2024-03-02T05:34:58;96067.88;;;5.82;76.18
71917;BME280;59793;46.506;6.674;2024-03-02T05:37:23;96069.38;;;5.55;77.20
71917;BME280;59793;46.506;6.674;2024-03-02T05:39:48;96043.16;;;5.23;77.89
71917;BME280;59793;46.506;6.674;2024-03-02T05:42:14;96054.09;;;5.41;78.39
71917;BME280;59793;46.506;6.674;2024-03-02T05:44:39;96046.06;;;5.34;78.20
71917;BME280;59793;46.506;6.674;2024-03-02T05:47:05;96056.91;;;5.36;78.21
71917;BME280;59793;46.506;6.674;2024-03-02T05:49:32;96056.41;;;5.18;78.41
71917;BME280;59793;46.506;6.674;2024-03-02T05:51:58;96060.22;;;5.20;79.49
71917;BME280;59793;46.506;6.674;2024-03-02T05:54:23;96066.75;;;5.26;79.03
71917;BME280;59793;46.506;6.674;2024-03-02T05:56:48;96064.34;;;5.34;78.73
71917;BME280;59793;46.506;6.674;2024-03-02T05:59:13;96049.28;;;5.02;78.99
71917;BME280;59793;46.506;6.674;2024-03-02T06:01:43;96051.53;;;5.04;79.89
71917;BME280;59793;46.506;6.674;2024-03-02T06:04:12;96055.56;;;5.14;79.52
71917;BME280;59793;46.506;6.674;2024-03-02T06:06:38;96045.13;;;5.01;78.85
71917;BME280;59793;46.506;6.674;2024-03-02T06:09:04;96024.81;;;4.83;79.21
71917;BME280;59793;46.506;6.674;2024-03-02T06:11:37;96030.16;;;4.86;79.86
71917;BME280;59793;46.506;6.674;2024-03-02T06:14:05;96032.34;;;4.84;80.24
71917;BME280;59793;46.506;6.674;2024-03-02T06:16:31;96034.38;;;4.91;80.28
71917;BME280;59793;46.506;6.674;2024-03-02T06:18:57;96031.97;;;4.98;79.97
71917;BME280;59793;46.506;6.674;2024-03-02T06:21:23;96006.16;;;4.81;79.90
71917;BME280;59793;46.506;6.674;2024-03-02T06:23:49;96032.84;;;5.02;79.91
71917;BME280;59793;46.506;6.674;2024-03-02T06:26:14;96013.69;;;4.98;79.76
71917;BME280;59793;46.506;6.674;2024-03-02T06:28:42;96035.72;;;5.25;79.73
71917;BME280;59793;46.506;6.674;2024-03-02T06:31:08;96014.53;;;5.26;79.39
71917;BME280;59793;46.506;6.674;2024-03-02T06:33:34;96038.19;;;5.46;78.82
71917;BME280;59793;46.506;6.674;2024-03-02T06:35:59;96014.56;;;5.42;78.34
71917;BME280;59793;46.506;6.674;2024-03-02T06:38:24;96029.03;;;5.52;78.28
71917;BME280;59793;46.506;6.674;2024-03-02T06:40:50;96037.38;;;5.58;78.17
71917;BME280;59793;46.506;6.674;2024-03-02T06:43:15;96032.81;;;5.55;78.96
71917;BME280;59793;46.506;6.674;2024-03-02T06:45:40;96026.59;;;5.59;79.41
71917;BME280;59793;46.506;6.674;2024-03-02T06:48:06;96031.44;;;5.73;78.76
71917;BME280;59793;46.506;6.674;2024-03-02T06:50:32;96017.81;;;5.80;78.12
71917;BME280;59793;46.506;6.674;2024-03-02T06:52:57;96037.69;;;6.12;77.79
71917;BME280;59793;46.506;6.674;2024-03-02T06:55:22;96013.41;;;6.28;76.88
71917;BME280;59793;46.506;6.674;2024-03-02T06:57:49;96029.09;;;6.59;75.99
71917;BME280;59793;46.506;6.674;2024-03-02T07:00:16;96014.72;;;6.69;75.66
71917;BME280;59793;46.506;6.674;2024-03-02T07:02:43;96027.84;;;7.04;74.80
71917;BME280;59793;46.506;6.674;2024-03-02T07:05:10;96030.88;;;7.26;74.47
71917;BME280;59793;46.506;6.674;2024-03-02T07:07:36;96031.59;;;7.42;74.09
71917;BME280;59793;46.506;6.674;2024-03-02T07:10:04;96030.69;;;7.54;73.75
71917;BME280;59793;46.506;6.674;2024-03-02T07:12:30;96021.66;;;7.51;73.55
71917;BME280;59793;46.506;6.674;2024-03-02T07:14:56;96043.13;;;7.57;73.12
71917;BME280;59793;46.506;6.674;2024-03-02T07:17:27;96044.94;;;7.17;74.03
71917;BME280;59793;46.506;6.674;2024-03-02T07:19:53;96030.06;;;7.22;74.75
71917;BME280;59793;46.506;6.674;2024-03-02T07:22:18;96028.88;;;7.38;74.70
71917;BME280;59793;46.506;6.674;2024-03-02T07:24:44;96015.84;;;7.61;74.16
71917;BME280;59793;46.506;6.674;2024-03-02T07:27:11;95999.84;;;7.66;74.03
71917;BME280;59793;46.506;6.674;2024-03-02T07:29:37;96002.75;;;8.04;73.16
71917;BME280;59793;46.506;6.674;2024-03-02T07:32:03;96000.47;;;8.25;72.50
71917;BME280;59793;46.506;6.674;2024-03-02T07:34:28;96013.38;;;8.34;71.11
71917;BME280;59793;46.506;6.674;2024-03-02T07:36:54;96009.63;;;8.35;70.40
71917;BME280;59793;46.506;6.674;2024-03-02T07:39:19;95991.91;;;8.51;69.31
71917;BME280;59793;46.506;6.674;2024-03-02T07:41:45;96026.91;;;8.85;69.67
71917;BME280;59793;46.506;6.674;2024-03-02T07:44:10;96020.81;;;8.78;68.76
71917;BME280;59793;46.506;6.674;2024-03-02T07:46:41;95984.69;;;8.71;68.21
71917;BME280;59793;46.506;6.674;2024-03-02T07:49:07;96016.13;;;9.21;67.50
71917;BME280;59793;46.506;6.674;2024-03-02T07:51:32;96020.94;;;9.15;68.30
71917;BME280;59793;46.506;6.674;2024-03-02T07:53:58;96017.78;;;9.36;68.51
71917;BME280;59793;46.506;6.674;2024-03-02T07:56:23;95993.84;;;9.41;68.18
71917;BME280;59793;46.506;6.674;2024-03-02T07:58:48;96013.59;;;9.62;67.41
71917;BME280;59793;46.506;6.674;2024-03-02T08:01:14;96013.53;;;9.54;67.77
71917;BME280;59793;46.506;6.674;2024-03-02T08:03:40;96001.56;;;9.27;68.29
71917;BME280;59793;46.506;6.674;2024-03-02T08:06:06;96008.81;;;9.37;69.09
71917;BME280;59793;46.506;6.674;2024-03-02T08:08:31;96017.09;;;9.39;69.33
71917;BME280;59793;46.506;6.674;2024-03-02T08:10:56;95972.78;;;9.07;68.96
71917;BME280;59793;46.506;6.674;2024-03-02T08:13:22;95972.53;;;9.16;69.07
71917;BME280;59793;46.506;6.674;2024-03-02T08:15:47;95980.16;;;9.28;69.04
71917;BME280;59793;46.506;6.674;2024-03-02T08:18:12;95958.75;;;9.26;69.65
71917;BME280;59793;46.506;6.674;2024-03-02T08:20:38;95983.09;;;9.57;69.18
71917;BME280;59793;46.506;6.674;2024-03-02T08:23:04;95986.50;;;9.57;68.64
71917;BME280;59793;46.506;6.674;2024-03-02T08:25:30;95978.44;;;9.77;68.49
71917;BME280;59793;46.506;6.674;2024-03-02T08:27:55;95928.44;;;9.36;68.63
71917;BME280;59793;46.506;6.674;2024-03-02T08:30:20;95972.38;;;9.73;68.15
71917;BME280;59793;46.506;6.674;2024-03-02T08:32:46;95945.81;;;9.85;67.25
71917;BME280;59793;46.506;6.674;2024-03-02T08:35:12;95971.59;;;10.10;67.12
71917;BME280;59793;46.506;6.674;2024-03-02T08:37:41;95973.56;;;10.20;66.62
71917;BME280;59793;46.506;6.674;2024-03-02T08:40:07;95939.16;;;9.98;66.25
71917;BME280;59793;46.506;6.674;2024-03-02T08:42:33;95965.34;;;10.25;65.79
71917;BME280;59793;46.506;6.674;2024-03-02T08:44:58;95961.69;;;10.37;65.33
71917;BME280;59793;46.506;6.674;2024-03-02T08:47:26;95972.03;;;10.70;63.84
71917;BME280;59793;46.506;6.674;2024-03-02T08:49:51;95971.00;;;10.82;62.20
71917;BME280;59793;46.506;6.674;2024-03-02T08:52:17;95964.22;;;10.85;62.57
71917;BME280;59793;46.506;6.674;2024-03-02T08:54:42;95943.09;;;10.74;63.50
71917;BME280;59793;46.506;6.674;2024-03-02T08:57:07;95954.56;;;11.07;62.37
71917;BME280;59793;46.506;6.674;2024-03-02T08:59:33;95956.50;;;11.17;61.20
71917;BME280;59793;46.506;6.674;2024-03-02T09:01:58;95954.25;;;11.30;60.56
71917;BME280;59793;46.506;6.674;2024-03-02T09:04:24;95960.00;;;11.60;59.70
71917;BME280;59793;46.506;6.674;2024-03-02T09:06:49;95945.69;;;11.65;59.58
71917;BME280;59793;46.506;6.674;2024-03-02T09:09:15;95941.88;;;11.48;58.34
71917;BME280;59793;46.506;6.674;2024-03-02T09:11:40;95927.59;;;11.45;58.56
71917;BME280;59793;46.506;6.674;2024-03-02T09:14:05;95929.47;;;11.41;58.39
71917;BME280;59793;46.506;6.674;2024-03-02T09:16:31;95925.22;;;11.19;59.19
71917;BME280;59793;46.506;6.674;2024-03-02T09:18:58;95930.19;;;11.31;60.18
71917;BME280;59793;46.506;6.674;2024-03-02T09:21:23;95928.34;;;11.46;59.62
71917;BME280;59793;46.506;6.674;2024-03-02T09:23:48;95927.97;;;11.62;59.51
71917;BME280;59793;46.506;6.674;2024-03-02T09:26:14;95928.72;;;11.59;58.91
71917;BME280;59793;46.506;6.674;2024-03-02T09:28:43;95926.84;;;11.48;58.86
71917;BME280;59793;46.506;6.674;2024-03-02T09:31:08;95926.06;;;11.52;59.61
71917;BME280;59793;46.506;6.674;2024-03-02T09:33:33;95925.34;;;11.69;60.23
71917;BME280;59793;46.506;6.674;2024-03-02T09:35:59;95919.38;;;11.97;60.75
71917;BME280;59793;46.506;6.674;2024-03-02T09:38:24;95920.06;;;11.76;61.43
71917;BME280;59793;46.506;6.674;2024-03-02T09:40:49;95923.81;;;11.50;60.86
71917;BME280;59793;46.506;6.674;2024-03-02T09:43:15;95897.03;;;11.44;60.50
71917;BME280;59793;46.506;6.674;2024-03-02T09:45:41;95924.19;;;11.48;59.83
71917;BME280;59793;46.506;6.674;2024-03-02T09:48:07;95920.41;;;11.39;61.48
71917;BME280;59793;46.506;6.674;2024-03-02T09:50:33;95927.69;;;11.92;59.18
71917;BME280;59793;46.506;6.674;2024-03-02T09:52:58;95929.16;;;12.32;59.08
71917;BME280;59793;46.506;6.674;2024-03-02T09:55:24;95923.88;;;12.25;58.99
71917;BME280;59793;46.506;6.674;2024-03-02T09:57:50;95928.03;;;12.48;57.51
71917;BME280;59793;46.506;6.674;2024-03-02T10:00:16;95921.94;;;12.58;57.37
71917;BME280;59793;46.506;6.674;2024-03-02T10:02:43;95922.34;;;12.53;56.16
71917;BME280;59793;46.506;6.674;2024-03-02T10:05:09;95913.31;;;12.36;55.74
71917;BME280;59793;46.506;6.674;2024-03-02T10:07:34;95917.84;;;12.35;57.33
71917;BME280;59793;46.506;6.674;2024-03-02T10:10:12;95917.84;;;12.42;56.25
71917;BME280;59793;46.506;6.674;2024-03-02T10:12:38;95897.91;;;11.95;56.71
71917;BME280;59793;46.506;6.674;2024-03-02T10:15:03;95894.09;;;12.21;57.09
71917;BME280;59793;46.506;6.674;2024-03-02T10:17:35;95895.56;;;12.40;55.95
71917;BME280;59793;46.506;6.674;2024-03-02T10:20:25;95913.94;;;12.94;55.08
71917;BME280;59793;46.506;6.674;2024-03-02T10:22:51;95897.63;;;13.13;54.58
71917;BME280;59793;46.506;6.674;2024-03-02T10:25:29;95893.50;;;13.05;53.20
71917;BME280;59793;46.506;6.674;2024-03-02T10:27:59;95888.63;;;12.92;52.61
71917;BME280;59793;46.506;6.674;2024-03-02T10:30:27;95899.28;;;12.67;54.78
71917;BME280;59793;46.506;6.674;2024-03-02T10:32:56;95902.72;;;12.54;54.72
71917;BME280;59793;46.506;6.674;2024-03-02T10:35:22;95894.09;;;12.32;57.11
71917;BME280;59793;46.506;6.674;2024-03-02T10:37:55;95870.72;;;12.19;55.43
71917;BME280;59793;46.506;6.674;2024-03-02T10:40:23;95886.56;;;12.23;54.18
71917;BME280;59793;46.506;6.674;2024-03-02T10:42:50;95885.81;;;11.90;54.05
71917;BME280;59793;46.506;6.674;2024-03-02T10:45:16;95885.06;;;12.01;53.91
71917;BME280;59793;46.506;6.674;2024-03-02T10:47:43;95873.00;;;12.07;52.40
71917;BME280;59793;46.506;6.674;2024-03-02T10:50:09;95875.94;;;12.48;51.21
71917;BME280;59793;46.506;6.674;2024-03-02T10:52:35;95840.03;;;12.72;51.20
71917;BME280;59793;46.506;6.674;2024-03-02T10:55:00;95859.78;;;13.23;50.22
71917;BME280;59793;46.506;6.674;2024-03-02T10:57:26;95822.34;;;13.32;50.16
71917;BME280;59793;46.506;6.674;2024-03-02T11:00:02;95830.69;;;13.23;48.09
71917;BME280;59793;46.506;6.674;2024-03-02T11:02:29;95844.81;;;13.65;48.55
71917;BME280;59793;46.506;6.674;2024-03-02T11:04:56;95821.38;;;13.60;48.11
71917;BME280;59793;46.506;6.674;2024-03-02T11:07:24;95820.66;;;13.56;46.93
71917;BME280;59793;46.506;6.674;2024-03-02T11:09:59;95821.25;;;13.29;48.26
71917;BME280;59793;46.506;6.674;2024-03-02T11:12:29;95828.75;;;13.38;48.12
71917;BME280;59793;46.506;6.674;2024-03-02T11:14:58;95835.03;;;13.58;49.05
71917;BME280;59793;46.506;6.674;2024-03-02T11:17:25;95806.53;;;13.18;50.21
71917;BME280;59793;46.506;6.674;2024-03-02T11:19:51;95821.63;;;13.24;49.87
71917;BME280;59793;46.506;6.674;2024-03-02T11:22:17;95820.47;;;12.52;52.49
71917;BME280;59793;46.506;6.674;2024-03-02T11:24:51;95805.28;;;12.74;52.40
71917;BME280;59793;46.506;6.674;2024-03-02T11:27:58;95804.03;;;12.96;51.97
71917;BME280;59793;46.506;6.674;2024-03-02T11:33:10;95762.06;;;12.28;54.13
71917;BME280;59793;46.506;6.674;2024-03-02T11:35:36;95803.16;;;12.26;54.73
71917;BME280;59793;46.506;6.674;2024-03-02T11:38:06;95796.84;;;11.80;55.71
71917;BME280;59793;46.506;6.674;2024-03-02T11:40:33;95787.41;;;11.90;56.50
71917;BME280;59793;46.506;6.674;2024-03-02T11:43:01;95790.41;;;11.81;55.59
71917;BME280;59793;46.506;6.674;2024-03-02T11:45:27;95784.75;;;11.93;56.54
71917;BME280;59793;46.506;6.674;2024-03-02T11:47:57;95766.69;;;11.92;55.17
71917;BME280;59793;46.506;6.674;2024-03-02T11:50:36;95763.31;;;11.88;55.78
71917;BME280;59793;46.506;6.674;2024-03-02T11:53:09;95750.44;;;11.97;54.81
71917;BME280;59793;46.506;6.674;2024-03-02T11:55:36;95739.13;;;11.96;54.13
71917;BME280;59793;46.506;6.674;2024-03-02T11:58:03;95750.81;;;12.03;54.27
71917;BME280;59793;46.506;6.674;2024-03-02T12:00:28;95754.22;;;12.03;54.04
71917;BME280;59793;46.506;6.674;2024-03-02T12:03:02;95745.16;;;12.04;52.55
71917;BME280;59793;46.506;6.674;2024-03-02T12:05:29;95734.59;;;12.01;52.12
71917;BME280;59793;46.506;6.674;2024-03-02T12:07:59;95717.28;;;11.92;51.48
71917;BME280;59793;46.506;6.674;2024-03-02T12:10:25;95733.84;;;12.04;52.34
71917;BME280;59793;46.506;6.674;2024-03-02T12:13:03;95717.31;;;11.64;52.94
71917;BME280;59793;46.506;6.674;2024-03-02T12:15:35;95735.75;;;12.00;52.14
71917;BME280;59793;46.506;6.674;2024-03-02T12:18:05;95716.53;;;11.88;51.20
71917;BME280;59793;46.506;6.674;2024-03-02T12:20:33;95723.72;;;11.73;53.43
71917;BME280;59793;46.506;6.674;2024-03-02T12:23:00;95707.50;;;11.79;53.14
71917;BME280;59793;46.506;6.674;2024-03-02T12:25:26;95720.97;;;12.16;53.70
71917;BME280;59793;46.506;6.674;2024-03-02T12:27:56;95711.50;;;12.33;51.72
71917;BME280;59793;46.506;6.674;2024-03-02T12:30:23;95694.94;;;12.15;50.24
71917;BME280;59793;46.506;6.674;2024-03-02T12:32:49;95701.31;;;12.32;50.76
71917;BME280;59793;46.506;6.674;2024-03-02T12:35:15;95633.06;;;12.27;51.38
71917;BME280;59793;46.506;6.674;2024-03-02T12:37:48;95668.25;;;12.72;48.42
71917;BME280;59793;46.506;6.674;2024-03-02T12:40:14;95673.00;;;12.95;48.17
71917;BME280;59793;46.506;6.674;2024-03-02T12:42:40;95647.72;;;12.90;48.79
71917;BME280;59793;46.506;6.674;2024-03-02T12:45:10;95661.13;;;13.14;47.70
71917;BME280;59793;46.506;6.674;2024-03-02T12:47:35;95664.19;;;13.09;47.81
71917;BME280;59793;46.506;6.674;2024-03-02T12:50:02;95667.75;;;12.88;48.71
71917;BME280;59793;46.506;6.674;2024-03-02T12:52:28;95656.75;;;13.42;46.07
71917;BME280;59793;46.506;6.674;2024-03-02T12:54:54;95640.03;;;13.52;45.58
71917;BME280;59793;46.506;6.674;2024-03-02T12:57:25;95612.78;;;14.16;45.10
71917;BME280;59793;46.506;6.674;2024-03-02T12:59:52;95621.69;;;14.83;43.55
71917;BME280;59793;46.506;6.674;2024-03-02T13:02:18;95621.81;;;15.00;42.41
71917;BME280;59793;46.506;6.674;2024-03-02T13:04:44;95617.13;;;15.31;40.84
71917;BME280;59793;46.506;6.674;2024-03-02T13:07:10;95619.97;;;14.97;43.41